sensor_id;sensor_type;location;lat;lon;timestamp;P1;durP1;ratioP1;P2;durP2;ratioP2
54458;SDS011;40368;49.350;8.152;2023-08-12T00:00:50;20;;;37;;
54458;SDS011;40368;49.350;8.152;2023-08-12T00:01:50;23;;;33;;
54458;SDS011;40368;49.350;8.152;2023-08-12T00:02:50;20;;;27;;
54458;SDS011;40368;49.350;8.152;2023-08-12T00:03:50;23;;;29;;
54458;SDS011;40368;49.350;8.152;2023-08-12T00:04:50;24;;;28;;
54458;SDS011;40368;49.350;8.152;2023-08-12T00:05:51;23;;;48;;
54458;SDS011;40368;49.350;8.152;2023-08-12T00:06:50;26;;;42;;
54458;SDS011;40368;49.350;8.152;2023-08-12T00:07:50;23;;;36;;
54458;SDS011;40368;49.350;8.152;2023-08-12T00:08:50;23;;;50;;
54458;SDS011;40368;49.350;8.152;2023-08-12T00:09:50;24;;;44;;
54458;SDS011;40368;49.350;8.152;2023-08-12T00:10:50;27;;;39;;
54458;SDS011;40368;49.350;8.152;2023-08-12T00:11:50;26;;;39;;
54458;SDS011;40368;49.350;8.152;2023-08-12T00:12:50;28;;;33;;
54458;SDS011;40368;49.350;8.152;2023-08-12T00:13:50;25;;;31;;
54458;SDS011;40368;49.350;8.152;2023-08-12T00:14:50;27;;;60;;
54458;SDS011;40368;49.350;8.152;2023-08-12T00:15:51;26;;;50;;
54458;SDS011;40368;49.350;8.152;2023-08-12T00:16:50;25;;;47;;
54458;SDS011;40368;49.350;8.152;2023-08-12T00:17:50;27;;;45;;
54458;SDS011;40368;49.350;8.152;2023-08-12T00:18:50;26;;;43;;
54458;SDS011;40368;49.350;8.152;2023-08-12T00:19:50;24;;;47;;
54458;SDS011;40368;49.350;8.152;2023-08-12T00:20:50;28;;;63;;
54458;SDS011;40368;49.350;8.152;2023-08-12T00:21:52;26;;;66;;
54458;SDS011;40368;49.350;8.152;2023-08-12T00:22:50;27;;;54;;
54458;SDS011;40368;49.350;8.152;2023-08-12T00:23:50;24;;;49;;
54458;SDS011;40368;49.350;8.152;2023-08-12T00:24:50;25;;;32;;
54458;SDS011;40368;49.350;8.152;2023-08-12T00:25:50;27;;;62;;
54458;SDS011;40368;49.350;8.152;2023-08-12T00:26:50;27;;;34;;
54458;SDS011;40368;49.350;8.152;2023-08-12T00:27:52;26;;;51;;
54458;SDS011;40368;49.350;8.152;2023-08-12T00:28:50;26;;;32;;
54458;SDS011;40368;49.350;8.152;2023-08-12T00:29:50;28;;;42;;
54458;SDS011;40368;49.350;8.152;2023-08-12T00:30:50;28;;;31;;
54458;SDS011;40368;49.350;8.152;2023-08-12T00:31:50;26;;;42;;
54458;SDS011;40368;49.350;8.152;2023-08-12T00:32:50;27;;;45;;
54458;SDS011;40368;49.350;8.152;2023-08-12T00:33:50;24;;;55;;
54458;SDS011;40368;49.350;8.152;2023-08-12T00:34:50;25;;;39;;
54458;SDS011;40368;49.350;8.152;2023-08-12T00:35:50;28;;;48;;
54458;SDS011;40368;49.350;8.152;2023-08-12T00:36:50;27;;;43;;
54458;SDS011;40368;49.350;8.152;2023-08-12T00:37:50;27;;;116;;
54458;SDS011;40368;49.350;8.152;2023-08-12T00:38:50;25;;;62;;
54458;SDS011;40368;49.350;8.152;2023-08-12T00:39:50;25;;;35;;
54458;SDS011;40368;49.350;8.152;2023-08-12T00:40:50;25;;;39;;
54458;SDS011;40368;49.350;8.152;2023-08-12T00:41:50;28;;;77;;
54458;SDS011;40368;49.350;8.152;2023-08-12T00:42:50;25;;;34;;
54458;SDS011;40368;49.350;8.152;2023-08-12T00:43:50;29;;;38;;
54458;SDS011;40368;49.350;8.152;2023-08-12T00:44:50;26;;;39;;
54458;SDS011;40368;49.350;8.152;2023-08-12T00:45:50;27;;;31;;
54458;SDS011;40368;49.350;8.152;2023-08-12T00:46:50;27;;;60;;
54458;SDS011;40368;49.350;8.152;2023-08-12T00:47:50;27;;;70;;
54458;SDS011;40368;49.350;8.152;2023-08-12T00:48:50;27;;;70;;
54458;SDS011;40368;49.350;8.152;2023-08-12T00:49:50;29;;;94;;
54458;SDS011;40368;49.350;8.152;2023-08-12T00:51:50;26;;;36;;
54458;SDS011;40368;49.350;8.152;2023-08-12T00:52:50;27;;;41;;
54458;SDS011;40368;49.350;8.152;2023-08-12T00:53:50;30;;;50;;
54458;SDS011;40368;49.350;8.152;2023-08-12T00:54:50;27;;;32;;
54458;SDS011;40368;49.350;8.152;2023-08-12T00:55:50;26;;;41;;
54458;SDS011;40368;49.350;8.152;2023-08-12T00:56:50;29;;;55;;
54458;SDS011;40368;49.350;8.152;2023-08-12T00:57:50;25;;;43;;
54458;SDS011;40368;49.350;8.152;2023-08-12T00:59:50;24;;;26;;
54458;SDS011;40368;49.350;8.152;2023-08-12T01:00:50;27;;;43;;
54458;SDS011;40368;49.350;8.152;2023-08-12T01:01:50;26;;;36;;
54458;SDS011;40368;49.350;8.152;2023-08-12T01:02:50;27;;;30;;
54458;SDS011;40368;49.350;8.152;2023-08-12T01:03:50;26;;;29;;
54458;SDS011;40368;49.350;8.152;2023-08-12T01:04:50;28;;;37;;
54458;SDS011;40368;49.350;8.152;2023-08-12T01:05:50;32;;;99;;
54458;SDS011;40368;49.350;8.152;2023-08-12T01:06:50;26;;;58;;
54458;SDS011;40368;49.350;8.152;2023-08-12T01:07:50;25;;;29;;
54458;SDS011;40368;49.350;8.152;2023-08-12T01:08:50;23;;;39;;
54458;SDS011;40368;49.350;8.152;2023-08-12T01:09:50;26;;;40;;
54458;SDS011;40368;49.350;8.152;2023-08-12T01:10:52;26;;;28;;
54458;SDS011;40368;49.350;8.152;2023-08-12T01:11:52;26;;;34;;
54458;SDS011;40368;49.350;8.152;2023-08-12T01:12:52;26;;;70;;
54458;SDS011;40368;49.350;8.152;2023-08-12T01:13:52;28;;;31;;
54458;SDS011;40368;49.350;8.152;2023-08-12T01:14:51;24;;;54;;
54458;SDS011;40368;49.350;8.152;2023-08-12T01:15:50;23;;;25;;
54458;SDS011;40368;49.350;8.152;2023-08-12T01:16:51;24;;;53;;
54458;SDS011;40368;49.350;8.152;2023-08-12T01:17:50;27;;;37;;
54458;SDS011;40368;49.350;8.152;2023-08-12T01:18:50;25;;;69;;
54458;SDS011;40368;49.350;8.152;2023-08-12T01:19:50;26;;;32;;
54458;SDS011;40368;49.350;8.152;2023-08-12T01:20:50;26;;;49;;
54458;SDS011;40368;49.350;8.152;2023-08-12T01:21:50;26;;;39;;
54458;SDS011;40368;49.350;8.152;2023-08-12T01:22:52;23;;;33;;
54458;SDS011;40368;49.350;8.152;2023-08-12T01:23:50;24;;;67;;
54458;SDS011;40368;49.350;8.152;2023-08-12T01:24:52;25;;;50;;
54458;SDS011;40368;49.350;8.152;2023-08-12T01:25:50;24;;;43;;
54458;SDS011;40368;49.350;8.152;2023-08-12T01:26:50;23;;;32;;
54458;SDS011;40368;49.350;8.152;2023-08-12T01:27:50;24;;;28;;
54458;SDS011;40368;49.350;8.152;2023-08-12T01:28:50;25;;;39;;
54458;SDS011;40368;49.350;8.152;2023-08-12T01:29:51;22;;;28;;
54458;SDS011;40368;49.350;8.152;2023-08-12T01:30:51;25;;;30;;
54458;SDS011;40368;49.350;8.152;2023-08-12T01:31:52;22;;;48;;
54458;SDS011;40368;49.350;8.152;2023-08-12T01:32:52;23;;;38;;
54458;SDS011;40368;49.350;8.152;2023-08-12T01:33:52;23;;;26;;
54458;SDS011;40368;49.350;8.152;2023-08-12T01:34:52;26;;;31;;
54458;SDS011;40368;49.350;8.152;2023-08-12T01:35:51;26;;;31;;
54458;SDS011;40368;49.350;8.152;2023-08-12T01:36:51;23;;;50;;
54458;SDS011;40368;49.350;8.152;2023-08-12T01:37:51;24;;;67;;
54458;SDS011;40368;49.350;8.152;2023-08-12T01:38:50;23;;;39;;
54458;SDS011;40368;49.350;8.152;2023-08-12T01:39:50;26;;;37;;
54458;SDS011;40368;49.350;8.152;2023-08-12T01:40:50;24;;;34;;
54458;SDS011;40368;49.350;8.152;2023-08-12T01:41:50;24;;;49;;
54458;SDS011;40368;49.350;8.152;2023-08-12T01:42:50;25;;;48;;
54458;SDS011;40368;49.350;8.152;2023-08-12T01:43:50;25;;;34;;
54458;SDS011;40368;49.350;8.152;2023-08-12T01:44:50;22;;;29;;
54458;SDS011;40368;49.350;8.152;2023-08-12T01:45:50;22;;;40;;
54458;SDS011;40368;49.350;8.152;2023-08-12T01:46:50;25;;;31;;
54458;SDS011;40368;49.350;8.152;2023-08-12T01:47:50;27;;;57;;
54458;SDS011;40368;49.350;8.152;2023-08-12T01:48:50;26;;;35;;
54458;SDS011;40368;49.350;8.152;2023-08-12T01:49:50;23;;;38;;
54458;SDS011;40368;49.350;8.152;2023-08-12T01:50:50;23;;;30;;
54458;SDS011;40368;49.350;8.152;2023-08-12T01:51:50;25;;;29;;
54458;SDS011;40368;49.350;8.152;2023-08-12T01:52:50;26;;;47;;
54458;SDS011;40368;49.350;8.152;2023-08-12T01:53:50;27;;;54;;
54458;SDS011;40368;49.350;8.152;2023-08-12T01:54:50;30;;;75;;
54458;SDS011;40368;49.350;8.152;2023-08-12T01:55:51;25;;;39;;
54458;SDS011;40368;49.350;8.152;2023-08-12T01:56:50;22;;;27;;
54458;SDS011;40368;49.350;8.152;2023-08-12T01:57:50;22;;;24;;
54458;SDS011;40368;49.350;8.152;2023-08-12T01:58:50;27;;;48;;
54458;SDS011;40368;49.350;8.152;2023-08-12T01:59:50;26;;;34;;
54458;SDS011;40368;49.350;8.152;2023-08-12T02:00:50;27;;;94;;
54458;SDS011;40368;49.350;8.152;2023-08-12T02:01:50;26;;;47;;
54458;SDS011;40368;49.350;8.152;2023-08-12T02:02:50;26;;;53;;
54458;SDS011;40368;49.350;8.152;2023-08-12T02:03:50;27;;;34;;
54458;SDS011;40368;49.350;8.152;2023-08-12T02:04:50;27;;;70;;
54458;SDS011;40368;49.350;8.152;2023-08-12T02:05:50;24;;;52;;
54458;SDS011;40368;49.350;8.152;2023-08-12T02:06:50;24;;;33;;
54458;SDS011;40368;49.350;8.152;2023-08-12T02:07:50;27;;;40;;
54458;SDS011;40368;49.350;8.152;2023-08-12T02:08:50;26;;;33;;
54458;SDS011;40368;49.350;8.152;2023-08-12T02:09:50;25;;;39;;
54458;SDS011;40368;49.350;8.152;2023-08-12T02:10:50;30;;;45;;
54458;SDS011;40368;49.350;8.152;2023-08-12T02:11:50;26;;;40;;
54458;SDS011;40368;49.350;8.152;2023-08-12T02:12:50;27;;;49;;
54458;SDS011;40368;49.350;8.152;2023-08-12T02:13:50;26;;;34;;
54458;SDS011;40368;49.350;8.152;2023-08-12T02:14:50;24;;;41;;
54458;SDS011;40368;49.350;8.152;2023-08-12T02:15:50;29;;;75;;
54458;SDS011;40368;49.350;8.152;2023-08-12T02:16:50;27;;;43;;
54458;SDS011;40368;49.350;8.152;2023-08-12T02:17:50;27;;;59;;
54458;SDS011;40368;49.350;8.152;2023-08-12T02:18:50;24;;;33;;
54458;SDS011;40368;49.350;8.152;2023-08-12T02:19:50;26;;;50;;
54458;SDS011;40368;49.350;8.152;2023-08-12T02:20:50;28;;;81;;
54458;SDS011;40368;49.350;8.152;2023-08-12T02:22:50;25;;;38;;
54458;SDS011;40368;49.350;8.152;2023-08-12T02:23:50;28;;;49;;
54458;SDS011;40368;49.350;8.152;2023-08-12T02:24:51;29;;;35;;
54458;SDS011;40368;49.350;8.152;2023-08-12T02:25:51;25;;;50;;
54458;SDS011;40368;49.350;8.152;2023-08-12T02:26:50;26;;;48;;
54458;SDS011;40368;49.350;8.152;2023-08-12T02:27:50;26;;;81;;
54458;SDS011;40368;49.350;8.152;2023-08-12T02:28:50;25;;;49;;
54458;SDS011;40368;49.350;8.152;2023-08-12T02:29:50;27;;;29;;
54458;SDS011;40368;49.350;8.152;2023-08-12T02:30:50;28;;;81;;
54458;SDS011;40368;49.350;8.152;2023-08-12T02:31:50;25;;;35;;
54458;SDS011;40368;49.350;8.152;2023-08-12T02:32:50;27;;;58;;
54458;SDS011;40368;49.350;8.152;2023-08-12T02:33:50;22;;;30;;
54458;SDS011;40368;49.350;8.152;2023-08-12T02:34:50;24;;;47;;
54458;SDS011;40368;49.350;8.152;2023-08-12T02:35:52;26;;;33;;
54458;SDS011;40368;49.350;8.152;2023-08-12T02:36:50;26;;;43;;
54458;SDS011;40368;49.350;8.152;2023-08-12T02:37:50;26;;;56;;
54458;SDS011;40368;49.350;8.152;2023-08-12T02:38:50;27;;;38;;
54458;SDS011;40368;49.350;8.152;2023-08-12T02:39:50;25;;;39;;
54458;SDS011;40368;49.350;8.152;2023-08-12T02:40:50;28;;;40;;
54458;SDS011;40368;49.350;8.152;2023-08-12T02:41:50;26;;;30;;
54458;SDS011;40368;49.350;8.152;2023-08-12T02:42:50;31;;;53;;
54458;SDS011;40368;49.350;8.152;2023-08-12T02:43:50;30;;;67;;
54458;SDS011;40368;49.350;8.152;2023-08-12T02:44:50;30;;;58;;
54458;SDS011;40368;49.350;8.152;2023-08-12T02:45:50;30;;;73;;
54458;SDS011;40368;49.350;8.152;2023-08-12T02:46:50;27;;;40;;
54458;SDS011;40368;49.350;8.152;2023-08-12T02:47:50;28;;;68;;
54458;SDS011;40368;49.350;8.152;2023-08-12T02:48:50;28;;;32;;
54458;SDS011;40368;49.350;8.152;2023-08-12T02:49:50;28;;;31;;
54458;SDS011;40368;49.350;8.152;2023-08-12T02:50:50;29;;;47;;
54458;SDS011;40368;49.350;8.152;2023-08-12T02:51:50;30;;;61;;
54458;SDS011;40368;49.350;8.152;2023-08-12T02:52:50;29;;;51;;
54458;SDS011;40368;49.350;8.152;2023-08-12T02:53:50;29;;;32;;
54458;SDS011;40368;49.350;8.152;2023-08-12T02:54:50;26;;;31;;
54458;SDS011;40368;49.350;8.152;2023-08-12T02:55:50;30;;;45;;
54458;SDS011;40368;49.350;8.152;2023-08-12T02:56:50;32;;;68;;
54458;SDS011;40368;49.350;8.152;2023-08-12T02:57:50;29;;;39;;
54458;SDS011;40368;49.350;8.152;2023-08-12T02:58:50;30;;;38;;
54458;SDS011;40368;49.350;8.152;2023-08-12T02:59:50;33;;;38;;
54458;SDS011;40368;49.350;8.152;2023-08-12T03:00:50;29;;;39;;
54458;SDS011;40368;49.350;8.152;2023-08-12T03:01:50;28;;;33;;
54458;SDS011;40368;49.350;8.152;2023-08-12T03:02:50;30;;;67;;
54458;SDS011;40368;49.350;8.152;2023-08-12T03:03:50;33;;;87;;
54458;SDS011;40368;49.350;8.152;2023-08-12T03:04:50;28;;;47;;
54458;SDS011;40368;49.350;8.152;2023-08-12T03:05:50;29;;;85;;
54458;SDS011;40368;49.350;8.152;2023-08-12T03:06:50;27;;;48;;
54458;SDS011;40368;49.350;8.152;2023-08-12T03:07:50;28;;;41;;
54458;SDS011;40368;49.350;8.152;2023-08-12T03:08:50;29;;;50;;
54458;SDS011;40368;49.350;8.152;2023-08-12T03:09:50;26;;;33;;
54458;SDS011;40368;49.350;8.152;2023-08-12T03:10:50;31;;;56;;
54458;SDS011;40368;49.350;8.152;2023-08-12T03:11:50;30;;;46;;
54458;SDS011;40368;49.350;8.152;2023-08-12T03:12:50;34;;;43;;
54458;SDS011;40368;49.350;8.152;2023-08-12T03:13:50;31;;;55;;
54458;SDS011;40368;49.350;8.152;2023-08-12T03:14:50;31;;;43;;
54458;SDS011;40368;49.350;8.152;2023-08-12T03:15:50;29;;;99;;
54458;SDS011;40368;49.350;8.152;2023-08-12T03:16:50;34;;;67;;
54458;SDS011;40368;49.350;8.152;2023-08-12T03:17:50;31;;;53;;
54458;SDS011;40368;49.350;8.152;2023-08-12T03:18:51;32;;;62;;
54458;SDS011;40368;49.350;8.152;2023-08-12T03:19:50;29;;;46;;
54458;SDS011;40368;49.350;8.152;2023-08-12T03:20:50;30;;;51;;
54458;SDS011;40368;49.350;8.152;2023-08-12T03:21:50;29;;;44;;
54458;SDS011;40368;49.350;8.152;2023-08-12T03:22:50;27;;;51;;
54458;SDS011;40368;49.350;8.152;2023-08-12T03:23:50;31;;;52;;
54458;SDS011;40368;49.350;8.152;2023-08-12T03:24:50;29;;;51;;
54458;SDS011;40368;49.350;8.152;2023-08-12T03:25:50;27;;;38;;
54458;SDS011;40368;49.350;8.152;2023-08-12T03:26:50;28;;;42;;
54458;SDS011;40368;49.350;8.152;2023-08-12T03:27:50;32;;;44;;
54458;SDS011;40368;49.350;8.152;2023-08-12T03:28:50;27;;;41;;
54458;SDS011;40368;49.350;8.152;2023-08-12T03:29:50;29;;;55;;
54458;SDS011;40368;49.350;8.152;2023-08-12T03:30:51;29;;;57;;
54458;SDS011;40368;49.350;8.152;2023-08-12T03:31:50;29;;;54;;
54458;SDS011;40368;49.350;8.152;2023-08-12T03:32:51;29;;;41;;
54458;SDS011;40368;49.350;8.152;2023-08-12T03:33:50;30;;;54;;
54458;SDS011;40368;49.350;8.152;2023-08-12T03:34:50;33;;;53;;
54458;SDS011;40368;49.350;8.152;2023-08-12T03:35:50;29;;;41;;
54458;SDS011;40368;49.350;8.152;2023-08-12T03:36:50;28;;;45;;
54458;SDS011;40368;49.350;8.152;2023-08-12T03:37:50;28;;;63;;
54458;SDS011;40368;49.350;8.152;2023-08-12T03:38:50;26;;;34;;
54458;SDS011;40368;49.350;8.152;2023-08-12T03:39:50;29;;;43;;
54458;SDS011;40368;49.350;8.152;2023-08-12T03:40:50;30;;;51;;
54458;SDS011;40368;49.350;8.152;2023-08-12T03:41:50;30;;;38;;
54458;SDS011;40368;49.350;8.152;2023-08-12T03:42:50;27;;;33;;
54458;SDS011;40368;49.350;8.152;2023-08-12T03:43:50;31;;;39;;
54458;SDS011;40368;49.350;8.152;2023-08-12T03:44:50;30;;;34;;
54458;SDS011;40368;49.350;8.152;2023-08-12T03:45:50;30;;;67;;
54458;SDS011;40368;49.350;8.152;2023-08-12T03:46:50;29;;;52;;
54458;SDS011;40368;49.350;8.152;2023-08-12T03:47:50;33;;;91;;
54458;SDS011;40368;49.350;8.152;2023-08-12T03:48:50;26;;;41;;
54458;SDS011;40368;49.350;8.152;2023-08-12T03:49:50;31;;;56;;
54458;SDS011;40368;49.350;8.152;2023-08-12T03:50:50;29;;;57;;
54458;SDS011;40368;49.350;8.152;2023-08-12T03:51:50;32;;;51;;
54458;SDS011;40368;49.350;8.152;2023-08-12T03:52:50;31;;;40;;
54458;SDS011;40368;49.350;8.152;2023-08-12T03:53:50;27;;;67;;
54458;SDS011;40368;49.350;8.152;2023-08-12T03:54:50;31;;;65;;
54458;SDS011;40368;49.350;8.152;2023-08-12T03:55:50;30;;;63;;
54458;SDS011;40368;49.350;8.152;2023-08-12T03:56:50;25;;;33;;
54458;SDS011;40368;49.350;8.152;2023-08-12T03:57:50;29;;;58;;
54458;SDS011;40368;49.350;8.152;2023-08-12T03:58:50;24;;;36;;
54458;SDS011;40368;49.350;8.152;2023-08-12T03:59:50;32;;;41;;
54458;SDS011;40368;49.350;8.152;2023-08-12T04:00:50;30;;;70;;
54458;SDS011;40368;49.350;8.152;2023-08-12T04:01:50;31;;;46;;
54458;SDS011;40368;49.350;8.152;2023-08-12T04:02:50;30;;;53;;
54458;SDS011;40368;49.350;8.152;2023-08-12T04:03:50;32;;;49;;
54458;SDS011;40368;49.350;8.152;2023-08-12T04:04:50;31;;;44;;
54458;SDS011;40368;49.350;8.152;2023-08-12T04:05:50;31;;;77;;
54458;SDS011;40368;49.350;8.152;2023-08-12T04:06:50;32;;;54;;
54458;SDS011;40368;49.350;8.152;2023-08-12T04:07:50;36;;;62;;
54458;SDS011;40368;49.350;8.152;2023-08-12T04:08:50;34;;;48;;
54458;SDS011;40368;49.350;8.152;2023-08-12T04:09:50;36;;;53;;
54458;SDS011;40368;49.350;8.152;2023-08-12T04:10:50;36;;;91;;
54458;SDS011;40368;49.350;8.152;2023-08-12T04:11:50;33;;;44;;
54458;SDS011;40368;49.350;8.152;2023-08-12T04:12:50;32;;;49;;
54458;SDS011;40368;49.350;8.152;2023-08-12T04:13:50;29;;;42;;
54458;SDS011;40368;49.350;8.152;2023-08-12T04:14:50;34;;;68;;
54458;SDS011;40368;49.350;8.152;2023-08-12T04:15:50;35;;;149;;
54458;SDS011;40368;49.350;8.152;2023-08-12T04:16:50;32;;;72;;
54458;SDS011;40368;49.350;8.152;2023-08-12T04:17:50;36;;;40;;
54458;SDS011;40368;49.350;8.152;2023-08-12T04:18:50;34;;;47;;
54458;SDS011;40368;49.350;8.152;2023-08-12T04:19:50;36;;;52;;
54458;SDS011;40368;49.350;8.152;2023-08-12T04:20:51;35;;;59;;
54458;SDS011;40368;49.350;8.152;2023-08-12T04:21:50;35;;;51;;
54458;SDS011;40368;49.350;8.152;2023-08-12T04:22:50;31;;;41;;
54458;SDS011;40368;49.350;8.152;2023-08-12T04:23:50;35;;;48;;
54458;SDS011;40368;49.350;8.152;2023-08-12T04:24:50;36;;;72;;
54458;SDS011;40368;49.350;8.152;2023-08-12T04:25:52;35;;;47;;
54458;SDS011;40368;49.350;8.152;2023-08-12T04:26:50;35;;;39;;
54458;SDS011;40368;49.350;8.152;2023-08-12T04:27:50;36;;;43;;
54458;SDS011;40368;49.350;8.152;2023-08-12T04:28:50;40;;;58;;
54458;SDS011;40368;49.350;8.152;2023-08-12T04:29:50;37;;;68;;
54458;SDS011;40368;49.350;8.152;2023-08-12T04:30:50;34;;;40;;
54458;SDS011;40368;49.350;8.152;2023-08-12T04:31:50;33;;;89;;
54458;SDS011;40368;49.350;8.152;2023-08-12T04:32:50;35;;;72;;
54458;SDS011;40368;49.350;8.152;2023-08-12T04:33:50;37;;;49;;
54458;SDS011;40368;49.350;8.152;2023-08-12T04:34:50;39;;;69;;
54458;SDS011;40368;49.350;8.152;2023-08-12T04:35:50;36;;;63;;
54458;SDS011;40368;49.350;8.152;2023-08-12T04:36:50;36;;;65;;
54458;SDS011;40368;49.350;8.152;2023-08-12T04:37:50;34;;;52;;
54458;SDS011;40368;49.350;8.152;2023-08-12T04:38:50;39;;;77;;
54458;SDS011;40368;49.350;8.152;2023-08-12T04:39:50;37;;;77;;
54458;SDS011;40368;49.350;8.152;2023-08-12T04:41:50;40;;;57;;
54458;SDS011;40368;49.350;8.152;2023-08-12T04:42:50;36;;;51;;
54458;SDS011;40368;49.350;8.152;2023-08-12T04:43:50;38;;;42;;
54458;SDS011;40368;49.350;8.152;2023-08-12T04:44:50;43;;;66;;
54458;SDS011;40368;49.350;8.152;2023-08-12T04:45:50;39;;;81;;
54458;SDS011;40368;49.350;8.152;2023-08-12T04:46:50;36;;;64;;
54458;SDS011;40368;49.350;8.152;2023-08-12T04:47:50;39;;;94;;
54458;SDS011;40368;49.350;8.152;2023-08-12T04:48:50;38;;;42;;
54458;SDS011;40368;49.350;8.152;2023-08-12T04:49:51;36;;;64;;
54458;SDS011;40368;49.350;8.152;2023-08-12T04:50:50;39;;;84;;
54458;SDS011;40368;49.350;8.152;2023-08-12T04:51:51;38;;;75;;
54458;SDS011;40368;49.350;8.152;2023-08-12T04:52:50;35;;;43;;
54458;SDS011;40368;49.350;8.152;2023-08-12T04:53:50;38;;;42;;
54458;SDS011;40368;49.350;8.152;2023-08-12T04:54:52;37;;;53;;
54458;SDS011;40368;49.350;8.152;2023-08-12T04:55:50;39;;;66;;
54458;SDS011;40368;49.350;8.152;2023-08-12T04:56:50;36;;;61;;
54458;SDS011;40368;49.350;8.152;2023-08-12T04:57:50;39;;;62;;
54458;SDS011;40368;49.350;8.152;2023-08-12T04:58:50;37;;;63;;
54458;SDS011;40368;49.350;8.152;2023-08-12T04:59:50;37;;;48;;
54458;SDS011;40368;49.350;8.152;2023-08-12T05:00:50;36;;;50;;
54458;SDS011;40368;49.350;8.152;2023-08-12T05:01:50;38;;;51;;
54458;SDS011;40368;49.350;8.152;2023-08-12T05:02:50;40;;;63;;
54458;SDS011;40368;49.350;8.152;2023-08-12T05:03:50;39;;;58;;
54458;SDS011;40368;49.350;8.152;2023-08-12T05:04:51;37;;;58;;
54458;SDS011;40368;49.350;8.152;2023-08-12T05:05:50;41;;;107;;
54458;SDS011;40368;49.350;8.152;2023-08-12T05:06:50;43;;;69;;
54458;SDS011;40368;49.350;8.152;2023-08-12T05:07:50;39;;;62;;
54458;SDS011;40368;49.350;8.152;2023-08-12T05:08:50;44;;;74;;
54458;SDS011;40368;49.350;8.152;2023-08-12T05:09:50;43;;;83;;
54458;SDS011;40368;49.350;8.152;2023-08-12T05:10:50;39;;;54;;
54458;SDS011;40368;49.350;8.152;2023-08-12T05:11:50;40;;;59;;
54458;SDS011;40368;49.350;8.152;2023-08-12T05:12:50;38;;;50;;
54458;SDS011;40368;49.350;8.152;2023-08-12T05:13:50;43;;;66;;
54458;SDS011;40368;49.350;8.152;2023-08-12T05:14:50;38;;;51;;
54458;SDS011;40368;49.350;8.152;2023-08-12T05:15:50;41;;;57;;
54458;SDS011;40368;49.350;8.152;2023-08-12T05:16:50;40;;;51;;
54458;SDS011;40368;49.350;8.152;2023-08-12T05:17:50;38;;;52;;
54458;SDS011;40368;49.350;8.152;2023-08-12T05:18:50;44;;;86;;
54458;SDS011;40368;49.350;8.152;2023-08-12T05:19:50;38;;;47;;
54458;SDS011;40368;49.350;8.152;2023-08-12T05:20:51;37;;;51;;
54458;SDS011;40368;49.350;8.152;2023-08-12T05:21:50;37;;;54;;
54458;SDS011;40368;49.350;8.152;2023-08-12T05:22:50;38;;;63;;
54458;SDS011;40368;49.350;8.152;2023-08-12T05:23:50;34;;;60;;
54458;SDS011;40368;49.350;8.152;2023-08-12T05:24:50;36;;;72;;
54458;SDS011;40368;49.350;8.152;2023-08-12T05:25:50;38;;;52;;
54458;SDS011;40368;49.350;8.152;2023-08-12T05:26:50;34;;;56;;
54458;SDS011;40368;49.350;8.152;2023-08-12T05:27:50;38;;;56;;
54458;SDS011;40368;49.350;8.152;2023-08-12T05:28:50;37;;;49;;
54458;SDS011;40368;49.350;8.152;2023-08-12T05:29:50;39;;;61;;
54458;SDS011;40368;49.350;8.152;2023-08-12T05:30:50;36;;;57;;
54458;SDS011;40368;49.350;8.152;2023-08-12T05:31:50;40;;;70;;
54458;SDS011;40368;49.350;8.152;2023-08-12T05:32:50;37;;;49;;
54458;SDS011;40368;49.350;8.152;2023-08-12T05:33:50;34;;;57;;
54458;SDS011;40368;49.350;8.152;2023-08-12T05:34:51;34;;;58;;
54458;SDS011;40368;49.350;8.152;2023-08-12T05:35:50;35;;;57;;
54458;SDS011;40368;49.350;8.152;2023-08-12T05:36:50;38;;;53;;
54458;SDS011;40368;49.350;8.152;2023-08-12T05:37:50;37;;;58;;
54458;SDS011;40368;49.350;8.152;2023-08-12T05:38:50;39;;;45;;
54458;SDS011;40368;49.350;8.152;2023-08-12T05:39:50;34;;;37;;
54458;SDS011;40368;49.350;8.152;2023-08-12T05:40:50;33;;;64;;
54458;SDS011;40368;49.350;8.152;2023-08-12T05:41:50;36;;;53;;
54458;SDS011;40368;49.350;8.152;2023-08-12T05:42:50;35;;;65;;
54458;SDS011;40368;49.350;8.152;2023-08-12T05:43:50;34;;;48;;
54458;SDS011;40368;49.350;8.152;2023-08-12T05:44:50;35;;;70;;
54458;SDS011;40368;49.350;8.152;2023-08-12T05:45:50;30;;;55;;
54458;SDS011;40368;49.350;8.152;2023-08-12T05:46:50;32;;;43;;
54458;SDS011;40368;49.350;8.152;2023-08-12T05:47:50;31;;;51;;
54458;SDS011;40368;49.350;8.152;2023-08-12T05:48:50;34;;;49;;
54458;SDS011;40368;49.350;8.152;2023-08-12T05:49:50;34;;;49;;
54458;SDS011;40368;49.350;8.152;2023-08-12T05:50:50;31;;;62;;
54458;SDS011;40368;49.350;8.152;2023-08-12T05:52:50;29;;;43;;
54458;SDS011;40368;49.350;8.152;2023-08-12T05:53:50;31;;;51;;
54458;SDS011;40368;49.350;8.152;2023-08-12T05:54:50;32;;;41;;
54458;SDS011;40368;49.350;8.152;2023-08-12T05:55:50;27;;;43;;
54458;SDS011;40368;49.350;8.152;2023-08-12T05:56:50;33;;;62;;
54458;SDS011;40368;49.350;8.152;2023-08-12T05:57:50;29;;;70;;
54458;SDS011;40368;49.350;8.152;2023-08-12T05:58:50;29;;;47;;
54458;SDS011;40368;49.350;8.152;2023-08-12T05:59:50;32;;;39;;
54458;SDS011;40368;49.350;8.152;2023-08-12T06:00:50;27;;;41;;
54458;SDS011;40368;49.350;8.152;2023-08-12T06:01:50;30;;;53;;
54458;SDS011;40368;49.350;8.152;2023-08-12T06:02:50;28;;;63;;
54458;SDS011;40368;49.350;8.152;2023-08-12T06:03:50;27;;;41;;
54458;SDS011;40368;49.350;8.152;2023-08-12T06:04:50;30;;;33;;
54458;SDS011;40368;49.350;8.152;2023-08-12T06:05:50;30;;;44;;
54458;SDS011;40368;49.350;8.152;2023-08-12T06:06:50;26;;;39;;
54458;SDS011;40368;49.350;8.152;2023-08-12T06:07:50;29;;;54;;
54458;SDS011;40368;49.350;8.152;2023-08-12T06:08:50;31;;;38;;
54458;SDS011;40368;49.350;8.152;2023-08-12T06:09:50;31;;;71;;
54458;SDS011;40368;49.350;8.152;2023-08-12T06:10:50;30;;;52;;
54458;SDS011;40368;49.350;8.152;2023-08-12T06:11:50;27;;;34;;
54458;SDS011;40368;49.350;8.152;2023-08-12T06:12:50;29;;;59;;
54458;SDS011;40368;49.350;8.152;2023-08-12T06:14:50;29;;;62;;
54458;SDS011;40368;49.350;8.152;2023-08-12T06:15:50;30;;;53;;
54458;SDS011;40368;49.350;8.152;2023-08-12T06:16:50;30;;;54;;
54458;SDS011;40368;49.350;8.152;2023-08-12T06:17:50;29;;;34;;
54458;SDS011;40368;49.350;8.152;2023-08-12T06:18:50;29;;;64;;
54458;SDS011;40368;49.350;8.152;2023-08-12T06:19:50;27;;;65;;
54458;SDS011;40368;49.350;8.152;2023-08-12T06:20:50;26;;;44;;
54458;SDS011;40368;49.350;8.152;2023-08-12T06:21:50;29;;;50;;
54458;SDS011;40368;49.350;8.152;2023-08-12T06:22:50;29;;;39;;
54458;SDS011;40368;49.350;8.152;2023-08-12T06:23:50;30;;;67;;
54458;SDS011;40368;49.350;8.152;2023-08-12T06:24:51;30;;;67;;
54458;SDS011;40368;49.350;8.152;2023-08-12T06:25:50;28;;;39;;
54458;SDS011;40368;49.350;8.152;2023-08-12T06:26:51;28;;;33;;
54458;SDS011;40368;49.350;8.152;2023-08-12T06:27:50;28;;;44;;
54458;SDS011;40368;49.350;8.152;2023-08-12T06:28:50;28;;;44;;
54458;SDS011;40368;49.350;8.152;2023-08-12T06:29:50;26;;;32;;
54458;SDS011;40368;49.350;8.152;2023-08-12T06:30:50;27;;;30;;